Latest Weather Observations for Gympie

IDQ60901

Issued at 9:51 pm EST Friday 23 June 2017 (issued every 10 minutes, with the page automatically refreshed every 10 minutes)

About weather observations | Map of Brisbane area stations | Latest observations for Brisbane area | Other Formats
Station Details ID: 040093 Name: GYMPIE Lat: -26.18 Lon: 152.64 Height: 64.5 m
Data from the previous 72 hours. | See also: Recent months at Gympie
Date/Time
EST
Temp
°C
App
Temp
°C
Dew
Point
°C
Rel
Hum
%
Delta-T
°C
Wind Press
QNH
hPa
Press
MSL
hPa
Rain since
9am
mm
Dir  Spd
km/h
Gust
km/h
Spd
kts
Gust
kts
23/09:30pm 10.2 9.7 9.3 94 0.4 NW 2 4 1 2 1020.0 1020.0 0.0
23/09:00pm 10.6 10.4 8.9 89 0.8 CALM 0 2 0 1 1020.1 1020.1 0.0
23/08:30pm 10.7 9.7 9.0 89 0.8 WSW 4 6 2 3 1020.0 1020.0 0.0
23/08:00pm 11.1 10.9 9.2 88 0.9 CALM 0 0 0 0 1019.8 1019.8 0.0
23/07:30pm 12.6 12.6 9.8 83 1.4 CALM 0 0 0 0 1019.6 1019.6 0.0
23/07:00pm 13.0 12.9 9.4 79 1.8 CALM 0 0 0 0 1019.6 1019.6 0.0
23/06:30pm 15.6 15.9 11.0 74 2.5 CALM 0 0 0 0 1019.4 1019.4 0.0
23/06:00pm 15.5 15.7 10.5 72 2.6 CALM 0 0 0 0 1019.0 1019.0 0.0
23/05:30pm 17.3 16.9 9.7 61 4.0 N 2 2 1 1 1018.6 1018.6 0.0
23/05:00pm 20.2 19.7 9.5 50 5.7 N 2 2 1 1 1018.3 1018.3 0.0
23/04:30pm 22.4 21.3 8.5 41 7.4 N 4 6 2 3 1018.3 1018.3 0.0
23/04:00pm 23.5 22.6 7.6 36 8.3 N 2 4 1 2 1018.2 1018.2 0.0
23/03:30pm 23.5 22.4 8.4 38 8.0 NNW 4 7 2 4 1018.3 1018.3 0.0
23/03:00pm 23.6 22.1 8.5 38 8.1 NNW 6 9 3 5 1018.5 1018.5 0.0
23/02:30pm 23.6 22.4 8.1 37 8.2 WNW 4 6 2 3 1018.7 1018.7 0.0
23/02:00pm 23.5 21.9 8.0 37 8.2 NNW 6 13 3 7 1018.9 1018.9 0.0
23/01:30pm 23.3 21.8 9.3 41 7.6 NNW 7 11 4 6 1019.3 1019.3 0.0
23/01:00pm 22.6 21.1 9.0 42 7.3 NW 7 15 4 8 1019.7 1019.7 0.0
23/12:30pm 22.4 20.7 9.9 45 6.8 NNW 9 15 5 8 1020.3 1020.3 0.0
23/12:00pm 21.9 21.0 9.4 45 6.7 N 4 6 2 3 1020.9 1020.9 0.0
23/11:30am 20.9 20.8 10.7 52 5.6 S 2 6 1 3 1021.8 1021.8 0.0
23/11:00am 19.4 18.9 10.9 58 4.6 SE 4 6 2 3 1022.6 1022.6 0.0
23/10:30am 18.4 18.9 11.5 64 3.8 CALM 0 4 0 2 1022.9 1022.9 0.0
23/10:00am 15.4 15.4 11.0 75 2.3 SW 2 4 1 2 1023.3 1023.2 0.0
23/09:30am 13.5 13.4 10.7 83 1.5 SSE 2 4 1 2 1023.5 1023.4 0.0
23/09:00am 11.5 11.2 10.1 91 0.7 SE 2 4 1 2 1023.7 1023.6 0.0
23/08:30am 9.8 9.8 9.8 100 0.0 CALM 0 0 0 0 1023.6 1023.5 0.0
23/08:00am 6.6 5.8 6.6 100 0.0 CALM 0 0 0 0 1023.3 1023.2 0.0
23/07:30am 5.5 4.5 5.5 100 0.0 CALM 0 0 0 0 1023.1 1023.0 0.0
23/07:00am 4.8 3.6 4.8 100 0.0 CALM 0 0 0 0 1022.8 1022.8 0.0
23/06:30am 4.8 3.6 4.7 99 0.0 CALM 0 0 0 0 1022.6 1022.6 0.0
23/06:00am 5.3 4.2 5.2 99 0.0 CALM 0 0 0 0 1022.4 1022.4 0.0
23/05:30am 5.5 4.5 5.5 100 0.0 CALM 0 0 0 0 1022.2 1022.2 0.0
23/05:00am 5.7 4.7 5.6 99 0.0 CALM 0 0 0 0 1021.9 1021.9 0.0
23/04:30am 5.8 4.8 5.7 99 0.0 CALM 0 0 0 0 1021.9 1021.9 0.0
23/04:00am 6.4 5.6 6.3 99 0.0 CALM 0 0 0 0 1022.2 1022.2 0.0
23/03:30am 6.8 6.1 6.8 100 0.0 CALM 0 0 0 0 1022.2 1022.2 0.0
23/03:00am 7.0 6.3 7.0 100 0.0 CALM 0 0 0 0 1022.2 1022.2 0.0
23/02:30am 7.1 6.4 7.0 99 0.0 CALM 0 0 0 0 1022.3 1022.3 0.0
23/02:00am 7.6 7.0 7.3 98 0.1 CALM 0 0 0 0 1022.5 1022.5 0.0
23/01:30am 8.0 7.5 7.9 99 0.0 CALM 0 0 0 0 1022.6 1022.6 0.0
23/01:00am 8.3 7.8 8.0 98 0.1 CALM 0 0 0 0 1022.7 1022.7 0.0
23/12:30am 8.6 8.2 8.2 97 0.2 CALM 0 0 0 0 1023.2 1023.1 0.0
23/12:00am 8.8 8.4 8.4 97 0.2 CALM 0 0 0 0 1023.4 1023.3 0.0
 
Date/Time
EST
Temp
°C
App
Temp
°C
Dew
Point
°C
Rel
Hum
%
Delta-T
°C
Wind Press
QNH
hPa
Press
MSL
hPa
Rain since
9am
mm
Dir  Spd
km/h
Gust
km/h
Spd
kts
Gust
kts
22/11:30pm 9.4 9.2 8.9 97 0.2 CALM 0 0 0 0 1023.7 1023.6 0.0
22/11:00pm 10.2 10.2 9.7 97 0.3 CALM 0 0 0 0 1023.9 1023.8 0.0
22/10:30pm 10.5 10.5 9.9 96 0.3 CALM 0 0 0 0 1024.1 1024.0 0.0
22/10:00pm 11.2 11.4 10.4 95 0.4 CALM 0 0 0 0 1024.1 1024.0 0.0
22/09:30pm 11.7 12.0 10.9 95 0.4 CALM 0 0 0 0 1024.1 1024.0 0.0
22/09:00pm 12.0 12.2 10.7 92 0.7 CALM 0 0 0 0 1024.3 1024.2 0.0
22/08:30pm 13.1 13.7 11.8 92 0.7 CALM 0 0 0 0 1024.1 1024.0 0.0
22/08:00pm 14.1 14.7 11.8 86 1.2 CALM 0 0 0 0 1024.1 1024.0 0.0
22/07:30pm 14.9 15.6 12.2 84 1.5 CALM 0 0 0 0 1024.0 1023.9 0.0
22/07:00pm 15.7 16.4 12.3 80 1.9 CALM 0 0 0 0 1023.8 1023.7 0.0
22/06:30pm 15.6 15.8 12.0 79 2.0 SE 2 6 1 3 1023.5 1023.4 0.0
22/06:00pm 17.2 16.7 12.1 72 2.8 SE 6 9 3 5 1023.2 1023.1 0.0
22/05:30pm 18.0 17.5 12.2 69 3.2 SE 6 7 3 4 1022.8 1022.8 0.0
22/05:00pm 19.2 18.3 12.7 66 3.6 SE 9 17 5 9 1022.5 1022.5 0.0
22/04:30pm 20.1 18.9 12.8 63 4.1 SE 11 19 6 10 1022.2 1022.2 0.0
22/04:00pm 21.1 20.9 13.0 60 4.6 SE 6 9 3 5 1022.1 1022.1 0.0
22/03:30pm 20.8 19.8 12.2 58 4.8 SE 9 17 5 9 1021.9 1021.9 0.0
22/03:00pm 22.0 20.9 12.0 53 5.6 ESE 9 13 5 7 1021.9 1021.9 0.0
22/02:30pm 21.1 19.9 11.7 55 5.2 SSE 9 15 5 8 1022.0 1022.0 0.0
22/02:00pm 20.8 20.0 11.7 56 5.1 SSE 7 13 4 7 1022.1 1022.1 0.0
22/01:30pm 20.8 19.9 12.5 59 4.7 SSE 9 17 5 9 1022.4 1022.4 0.0
22/01:00pm 20.9 20.2 12.1 57 4.9 SSE 7 17 4 9 1022.6 1022.6 0.0
22/12:30pm 22.3 21.3 12.3 53 5.7 SSE 9 19 5 10 1023.2 1023.1 0.0
22/12:00pm 22.2 21.2 13.5 57 5.0 SSE 11 20 6 11 1023.5 1023.4 0.0
22/11:30am 21.8 20.3 13.2 58 4.9 S 13 20 7 11 1024.0 1023.9 0.0
22/11:00am 21.2 20.2 13.4 61 4.5 SSE 11 19 6 10 1024.6 1024.5 0.0
22/10:30am 20.2 18.7 13.2 64 4.0 SSE 13 22 7 12 1025.0 1024.9 0.0
22/10:00am 19.6 19.1 13.8 69 3.3 SSE 9 15 5 8 1025.2 1025.1 0.0
22/09:30am 17.4 17.4 13.7 79 2.1 SSE 6 13 3 7 1025.4 1025.3 0.0
22/09:00am 14.5 14.7 11.8 84 1.4 SSE 2 4 1 2 1025.5 1025.4 0.0
22/08:30am 12.4 12.8 11.1 92 0.7 CALM 0 0 0 0 1025.2 1025.1 0.0
22/08:00am 10.1 10.2 10.0 99 0.1 CALM 0 0 0 0 1025.0 1024.9 0.0
22/07:30am 7.4 6.8 7.4 100 0.0 CALM 0 0 0 0 1024.6 1024.5 0.0
22/07:00am 5.8 4.8 5.7 99 0.0 CALM 0 0 0 0 1024.3 1024.2 0.0
22/06:30am 6.1 5.2 6.0 99 0.0 CALM 0 0 0 0 1024.1 1024.0 0.0
22/06:00am 6.7 5.2 6.7 100 0.0 N 4 6 2 3 1023.9 1023.8 0.0
22/05:30am 6.8 6.1 6.8 100 0.0 CALM 0 0 0 0 1023.5 1023.4 0.0
22/05:00am 6.7 5.9 6.7 100 0.0 CALM 0 2 0 1 1023.3 1023.2 0.0
22/04:30am 6.6 5.8 6.6 100 0.0 CALM 0 0 0 0 1023.2 1023.1 0.0
22/04:00am 6.8 6.0 6.7 99 0.0 CALM 0 0 0 0 1022.8 1022.8 0.0
22/03:30am 7.2 6.5 7.1 99 0.0 CALM 0 0 0 0 1022.9 1022.9 0.0
22/03:00am 7.0 6.2 6.7 98 0.1 CALM 0 0 0 0 1022.9 1022.9 0.0
22/02:30am 7.3 6.6 7.0 98 0.1 CALM 0 0 0 0 1023.1 1023.0 0.0
22/02:00am 7.8 7.3 7.8 100 0.0 CALM 0 0 0 0 1023.2 1023.1 0.0
22/01:30am 7.6 7.0 7.3 98 0.1 CALM 0 0 0 0 1023.4 1023.3 0.0
22/01:00am 8.3 7.9 8.2 99 0.0 CALM 0 0 0 0 1023.3 1023.2 0.0
22/12:30am 8.4 8.0 8.1 98 0.1 CALM 0 0 0 0 1023.6 1023.5 0.0
22/12:00am 8.5 8.1 8.1 97 0.2 CALM 0 0 0 0 1023.9 1023.8 0.0
 
Date/Time
EST
Temp
°C
App
Temp
°C
Dew
Point
°C
Rel
Hum
%
Delta-T
°C
Wind Press
QNH
hPa
Press
MSL
hPa
Rain since
9am
mm
Dir  Spd
km/h
Gust
km/h
Spd
kts
Gust
kts
21/11:30pm 8.9 8.5 8.3 96 0.3 CALM 0 0 0 0 1024.1 1024.0 0.0
21/11:00pm 9.1 8.3 8.2 94 0.4 N 2 4 1 2 1024.2 1024.1 0.0
21/10:30pm 9.7 9.5 9.1 96 0.3 CALM 0 4 0 2 1024.2 1024.1 0.0
21/10:00pm 10.0 9.8 8.9 93 0.5 CALM 0 0 0 0 1024.3 1024.2 0.0
21/09:30pm 10.9 10.9 9.8 93 0.6 CALM 0 6 0 3 1024.3 1024.2 0.0
21/09:00pm 10.4 10.3 9.5 94 0.4 CALM 0 0 0 0 1023.9 1023.8 0.0
21/08:30pm 11.3 11.4 10.2 93 0.6 CALM 0 0 0 0 1023.7 1023.6 0.0
21/08:00pm 12.3 12.5 10.5 89 0.9 CALM 0 0 0 0 1023.6 1023.5 0.0
21/07:30pm 12.5 12.6 10.0 85 1.3 CALM 0 0 0 0 1023.3 1023.2 0.0
21/07:00pm 13.8 14.1 10.8 82 1.6 CALM 0 0 0 0 1023.1 1023.0 0.0
21/06:30pm 14.8 15.0 10.4 75 2.3 CALM 0 0 0 0 1022.6 1022.6 0.0
21/06:00pm 16.8 17.0 10.6 67 3.3 CALM 0 0 0 0 1022.5 1022.5 0.0
21/05:30pm 18.0 17.5 10.6 62 4.0 E 4 6 2 3 1022.1 1022.1 0.0
21/05:00pm 18.7 17.8 10.5 59 4.4 SE 6 7 3 4 1021.7 1021.7 0.0
21/04:30pm 19.9 18.4 10.6 55 5.1 SE 9 17 5 9 1021.4 1021.4 0.0
21/04:00pm 21.0 19.8 9.6 48 6.1 SSE 6 9 3 5 1021.2 1021.2 0.0
21/03:30pm 21.7 20.2 9.3 45 6.7 SE 7 17 4 9 1021.0 1021.0 0.0
21/03:00pm 21.9 20.2 9.8 46 6.5 SSE 9 15 5 8 1021.0 1021.0 0.0
21/02:30pm 22.1 20.6 9.3 44 6.9 SE 7 15 4 8 1021.1 1021.1 0.0
21/02:00pm 22.3 21.2 10.5 47 6.5 SSE 7 17 4 9 1021.1 1021.1 0.0
21/01:30pm 21.9 20.2 9.8 46 6.6 SE 9 17 5 9 1020.8 1020.8 0.0
21/01:00pm 21.5 19.1 8.7 44 6.8 SSE 11 19 6 10 1021.0 1021.0 0.0
21/12:30pm 21.4 19.6 9.3 46 6.5 SSE 9 20 5 11 1021.3 1021.3 0.0
21/12:00pm 21.6 19.7 10.4 49 6.1 S 11 20 6 11 1022.0 1022.0 0.0
21/11:30am 20.9 19.4 10.4 51 5.7 SSE 9 17 5 9 1022.4 1022.4 0.0
21/11:00am 20.8 19.1 11.2 54 5.3 SSE 11 19 6 10 1022.9 1022.9 0.0
21/10:30am 19.7 19.6 12.2 62 4.2 SSE 4 7 2 4 1023.4 1023.3 0.0
21/10:00am 17.6 17.8 11.9 69 3.1 SE 2 4 1 2 1023.5 1023.4 0.0
21/09:30am 15.7 16.2 11.7 77 2.2 CALM 0 4 0 2 1023.7 1023.6 0.0
21/09:00am 13.6 14.0 11.3 86 1.2 CALM 0 4 0 2 1023.7 1023.6 0.0
21/08:30am 11.3 11.4 10.0 92 0.7 CALM 0 0 0 0 1023.5 1023.4 0.0
21/08:00am 8.9 8.6 8.6 98 0.1 CALM 0 0 0 0 1023.2 1023.1 0.0
21/07:30am 7.6 7.0 7.6 100 0.0 CALM 0 0 0 0 1022.8 1022.8 0.0
21/07:00am 6.0 5.1 6.0 100 0.0 CALM 0 0 0 0 1022.6 1022.6 0.0
21/06:30am 6.3 5.4 6.2 99 0.0 CALM 0 0 0 0 1022.3 1022.3 0.0
21/06:00am 6.0 5.1 5.9 99 0.0 CALM 0 0 0 0 1022.1 1022.1 0.0
21/05:30am 6.3 5.4 6.2 99 0.0 CALM 0 0 0 0 1021.7 1021.7 0.0
21/05:00am 6.3 5.4 6.0 98 0.1 CALM 0 0 0 0 1021.5 1021.5 0.0
21/04:30am 7.4 6.8 7.4 100 0.0 CALM 0 0 0 0 1021.3 1021.3 0.0
21/04:00am 7.5 6.9 7.4 99 0.0 CALM 0 0 0 0 1021.2 1021.2 0.0
21/03:30am 8.1 7.6 8.0 99 0.0 CALM 0 0 0 0 1021.3 1021.3 0.0
21/03:00am 7.8 7.3 7.7 99 0.0 CALM 0 0 0 0 1021.4 1021.4 0.0
21/02:30am 8.6 8.3 8.5 99 0.0 CALM 0 0 0 0 1021.3 1021.3 0.0
21/02:00am 9.2 9.0 9.1 99 0.0 CALM 0 0 0 0 1021.5 1021.5 0.0
21/01:30am 9.4 9.3 9.3 99 0.0 CALM 0 0 0 0 1021.6 1021.6 0.0
21/01:00am 10.0 10.0 9.9 99 0.1 CALM 0 0 0 0 1021.7 1021.7 0.0
21/12:30am 10.0 10.0 9.7 98 0.2 CALM 0 0 0 0 1021.9 1021.9 0.0
21/12:00am 10.9 11.1 10.6 98 0.2 CALM 0 0 0 0 1022.0 1022.0 0.0
 
Date/Time
EST
Temp
°C
App
Temp
°C
Dew
Point
°C
Rel
Hum
%
Delta-T
°C
Wind Press
QNH
hPa
Press
MSL
hPa
Rain since
9am
mm
Dir  Spd
km/h
Gust
km/h
Spd
kts
Gust
kts
20/11:30pm 10.9 11.0 10.3 96 0.3 CALM 0 0 0 0 1022.3 1022.3 0.0
20/11:00pm 11.2 11.4 10.4 95 0.4 CALM 0 0 0 0 1022.0 1022.0 0.0
20/10:30pm 11.6 11.5 10.7 94 0.5 WSW 2 2 1 1 1022.0 1022.0 0.0
20/10:00pm 12.3 12.5 10.7 90 0.8 CALM 0 0 0 0 1022.3 1022.3 0.0

Latest Capital City Observations: Canberra | Sydney | Melbourne | Brisbane | Adelaide | Perth | Hobart | Darwin

Other Formats:

Comma delimited format used in spreadsheet applications
http://www.bom.gov.au/fwo/IDQ60901/IDQ60901.94566.axf

JavaScript Object Notation format (JSON) in row-major order
http://www.bom.gov.au/fwo/IDQ60901/IDQ60901.94566.json